Time;durP1;ratioP1;P1;durP2;ratioP2;P2;SDS_P1;SDS_P2;PMS_P1;PMS_P2;Temp;Humidity;BMP_temperature;BMP_pressure;BME280_temperature;BME280_humidity;BME280_pressure;Samples;Min_cycle;Max_cycle;Signal;HPM_P1;HPM_P2
2022/09/09 00:00:29;;;;;;;;;;;;;;;21.39;59.31;100382.16;1024949;28;650;-72
2022/09/09 00:01:20;;;;;;;;;;;;;;;21.35;59.11;100373.53;1025334;28;658;-73
2022/09/09 00:02:10;;;;;;;;;;;;;;;21.36;59.29;100382.53;1024925;29;639;-72
2022/09/09 00:03:02;;;;;;;;;;;;;;;21.37;59.33;100378.78;1024893;29;686;-72
2022/09/09 00:03:52;;;;;;;;;;;;;;;21.39;59.28;100374.88;1025279;28;694;-72
2022/09/09 00:04:42;;;;;;;;;;;;;;;21.39;59.14;100374.88;1024743;28;655;-73
2022/09/09 00:05:33;;;;;;;;;;;;;;;21.41;59.23;100380.13;1024714;28;619;-72
2022/09/09 00:06:23;;;;;;;;;;;;;;;21.42;59.11;100379.09;1024818;28;994;-72
2022/09/09 00:07:14;;;;;;;;;;;;;;;21.41;59.04;100377.41;1024753;28;643;-72
2022/09/09 00:08:04;;;;;;;;;;;;;;;21.42;59.16;100377.22;1021649;28;622;-72
2022/09/09 00:08:55;;;;;;;;;;;;;;;21.41;58.99;100372.84;1020533;29;655;-72
2022/09/09 00:09:46;;;;;;;;;;;;;;;21.43;58.99;100369.94;1024071;29;653;-72
2022/09/09 00:10:36;;;;;;;;;;;;;;;21.42;59.08;100369.09;1027276;28;1132;-72
2022/09/09 00:11:27;;;;;;;;;;;;;;;21.42;58.89;100371.81;1028739;28;761;-73
2022/09/09 00:12:17;;;;;;;;;;;;;;;21.42;59.02;100370.97;1028210;28;639;-72
2022/09/09 00:13:07;;;;;;;;;;;;;;;21.42;58.98;100366.38;1028341;28;565;-72
2022/09/09 00:13:58;;;;;;;;;;;;;;;21.43;59.18;100368.06;1028112;28;626;-72
2022/09/09 00:14:48;;;;;;;;;;;;;;;21.42;59.00;100365.53;1028301;28;612;-72
2022/09/09 00:15:39;;;;;;;;;;;;;;;21.42;59.25;100366.38;1028731;28;693;-72
2022/09/09 00:16:30;;;;;;;;;;;;;;;21.41;59.20;100364.69;1028818;28;736;-73
2022/09/09 00:17:21;;;;;;;;;;;;;;;21.40;58.88;100365.72;1028142;28;640;-72
2022/09/09 00:18:12;;;;;;;;;;;;;;;21.40;58.88;100367.59;1028738;28;659;-72
2022/09/09 00:19:03;;;;;;;;;;;;;;;21.41;59.12;100369.28;1028226;28;627;-73
2022/09/09 00:19:53;;;;;;;;;;;;;;;21.41;59.12;100369.28;1028277;28;694;-74
2022/09/09 00:20:45;;;;;;;;;;;;;;;21.41;59.17;100369.28;1028244;28;657;-73
2022/09/09 00:21:36;;;;;;;;;;;;;;;21.40;59.06;100370.31;1026754;28;1487;-73
2022/09/09 00:22:26;;;;;;;;;;;;;;;21.41;59.01;100369.28;1025775;28;690;-73
2022/09/09 00:23:19;;;;;;;;;;;;;;;21.41;59.06;100369.28;1025990;28;650;-73
2022/09/09 00:24:09;;;;;;;;;;;;;;;21.40;58.97;100382.00;1024388;29;670;-73
2022/09/09 00:25:00;;;;;;;;;;;;;;;21.40;59.23;100376.56;1025586;28;694;-73
2022/09/09 00:25:50;;;;;;;;;;;;;;;21.41;59.25;100369.28;1025862;28;643;-73
2022/09/09 00:26:40;;;;;;;;;;;;;;;21.39;58.98;100372.16;1025679;28;584;-73
2022/09/09 00:27:31;;;;;;;;;;;;;;;21.42;58.98;100373.69;1025884;28;552;-73
2022/09/09 00:28:21;;;;;;;;;;;;;;;21.40;59.20;100373.00;1025785;28;691;-74
2022/09/09 00:29:12;;;;;;;;;;;;;;;21.42;59.09;100371.81;1025929;28;631;-74
2022/09/09 00:30:02;;;;;;;;;;;;;;;21.43;59.10;100364.53;1025812;28;666;-74
2022/09/09 00:30:53;;;;;;;;;;;;;;;21.40;58.97;100362.16;1025843;28;667;-74
2022/09/09 00:31:44;;;;;;;;;;;;;;;21.42;59.26;100368.25;1024142;29;643;-73
2022/09/09 00:32:35;;;;;;;;;;;;;;;21.41;59.01;100366.56;1025837;28;631;-73
2022/09/09 00:33:26;;;;;;;;;;;;;;;21.40;59.14;100368.44;1024187;29;769;-73
2022/09/09 00:34:17;;;;;;;;;;;;;;;21.40;59.15;100362.16;1025880;28;634;-73
2022/09/09 00:35:07;;;;;;;;;;;;;;;21.39;59.21;100360.47;1024271;29;623;-73
2022/09/09 00:35:57;;;;;;;;;;;;;;;21.33;59.25;100362.03;1025709;28;624;-73
2022/09/09 00:36:48;;;;;;;;;;;;;;;21.33;59.29;100355.78;1025791;28;674;-73
2022/09/09 00:37:40;;;;;;;;;;;;;;;21.34;59.24;100363.72;1024691;28;721;-73
2022/09/09 00:38:32;;;;;;;;;;;;;;;21.34;59.12;100358.31;1024155;29;741;-73
2022/09/09 00:39:22;;;;;;;;;;;;;;;21.36;59.07;100361.69;1024196;29;679;-73
2022/09/09 00:40:12;;;;;;;;;;;;;;;21.35;59.24;100364.56;1025775;28;647;-73
2022/09/09 00:41:03;;;;;;;;;;;;;;;21.36;59.09;100368.97;1020952;28;613;-73
2022/09/09 00:41:53;;;;;;;;;;;;;;;21.34;59.07;100363.72;1021039;28;662;-73
2022/09/09 00:42:45;;;;;;;;;;;;;;;21.35;59.20;100362.72;1019900;29;635;-73
2022/09/09 00:43:36;;;;;;;;;;;;;;;21.34;59.37;100355.59;1021028;28;1969;-72
2022/09/09 00:44:26;;;;;;;;;;;;;;;21.35;59.24;100367.28;1025346;28;623;-72
2022/09/09 00:45:17;;;;;;;;;;;;;;;21.36;59.18;100371.69;1024680;28;642;-72
2022/09/09 00:46:07;;;;;;;;;;;;;;;21.35;59.05;100361.84;1025723;28;681;-71
2022/09/09 00:46:58;;;;;;;;;;;;;;;21.37;59.20;100365.25;1025904;28;769;-71
2022/09/09 00:47:48;;;;;;;;;;;;;;;21.36;59.17;100358.97;1024667;28;651;-72
2022/09/09 00:48:39;;;;;;;;;;;;;;;21.36;59.08;100367.09;1024074;29;582;-72
2022/09/09 00:49:30;;;;;;;;;;;;;;;21.36;59.00;100364.41;1024053;29;683;-72
2022/09/09 00:50:24;;;;;;;;;;;;;;;21.36;59.23;100368.97;1025904;28;760;-72
2022/09/09 00:51:14;;;;;;;;;;;;;;;21.36;59.20;100360.84;1024478;28;1409;-72
2022/09/09 00:52:05;;;;;;;;;;;;;;;21.36;59.17;100366.25;1029249;28;674;-72
2022/09/09 00:52:55;;;;;;;;;;;;;;;21.34;59.24;100361.00;1029176;28;1234;-72
2022/09/09 00:53:46;;;;;;;;;;;;;;;21.33;59.20;100375.59;1024029;29;670;-72
2022/09/09 00:54:36;;;;;;;;;;;;;;;21.34;59.23;100368.31;1024153;29;631;-73
2022/09/09 00:55:26;;;;;;;;;;;;;;;21.33;59.24;100362.03;1024223;29;745;-73
2022/09/09 00:56:18;;;;;;;;;;;;;;;21.33;59.03;100362.03;1024116;29;582;-73
2022/09/09 00:57:08;;;;;;;;;;;;;;;21.34;59.13;100362.88;1024708;28;635;-73
2022/09/09 00:57:59;;;;;;;;;;;;;;;21.33;59.32;100369.31;1023962;28;619;-73
2022/09/09 00:58:50;;;;;;;;;;;;;;;21.34;59.15;100379.16;1024140;29;682;-73
2022/09/09 00:59:40;;;;;;;;;;;;;;;21.33;59.27;100372.03;1024666;28;638;-73
2022/09/09 01:00:31;;;;;;;;;;;;;;;21.32;59.21;100370.34;1024298;29;682;-73
2022/09/09 01:01:21;;;;;;;;;;;;;;;21.31;59.27;100368.69;1024159;29;643;-73
2022/09/09 01:02:11;;;;;;;;;;;;;;;21.18;59.44;100371.09;1024172;29;659;-72
2022/09/09 01:03:02;;;;;;;;;;;;;;;21.20;59.55;100372.66;1024062;29;698;-73
2022/09/09 01:03:53;;;;;;;;;;;;;;;21.22;59.45;100365.19;1023997;29;635;-73
2022/09/09 01:04:44;;;;;;;;;;;;;;;21.26;59.44;100366.50;1024690;29;753;-73
2022/09/09 01:05:34;;;;;;;;;;;;;;;21.27;59.62;100373.63;1024681;28;717;-72
2022/09/09 01:06:25;;;;;;;;;;;;;;;21.27;59.31;100372.78;1024635;28;641;-72
2022/09/09 01:07:15;;;;;;;;;;;;;;;21.26;59.38;100365.66;1024209;29;713;-72
2022/09/09 01:08:06;;;;;;;;;;;;;;;21.28;59.49;100363.63;1024021;29;709;-72
2022/09/09 01:08:56;;;;;;;;;;;;;;;21.27;59.46;100356.50;1024196;29;659;-72
2022/09/09 01:09:47;;;;;;;;;;;;;;;21.27;59.29;100357.38;1025271;28;733;-72
2022/09/09 01:10:37;;;;;;;;;;;;;;;21.22;59.47;100367.03;1020208;29;1151;-72
2022/09/09 01:11:29;;;;;;;;;;;;;;;21.24;59.32;100362.28;1021503;28;619;-73
2022/09/09 01:12:19;;;;;;;;;;;;;;;21.22;59.33;100365.19;1025923;28;633;-72
2022/09/09 01:13:10;;;;;;;;;;;;;;;21.23;59.53;100361.44;1025033;29;709;-72
2022/09/09 01:14:01;;;;;;;;;;;;;;;21.24;59.56;100362.28;1025364;28;643;-72
2022/09/09 01:14:51;;;;;;;;;;;;;;;21.22;59.41;100364.34;1024898;29;686;-72
2022/09/09 01:15:42;;;;;;;;;;;;;;;21.22;59.29;100364.34;1024875;29;601;-72
2022/09/09 01:16:33;;;;;;;;;;;;;;;21.23;59.34;100366.03;1021093;29;707;-72
2022/09/09 01:17:24;;;;;;;;;;;;;;;21.23;59.39;100360.59;1020618;29;639;-72
2022/09/09 01:18:15;;;;;;;;;;;;;;;21.18;59.27;100362.97;1024909;29;662;-72
2022/09/09 01:19:05;;;;;;;;;;;;;;;21.14;59.65;100363.31;1025405;29;650;-72
2022/09/09 01:19:56;;;;;;;;;;;;;;;21.18;59.60;100369.22;1024739;29;710;-73
2022/09/09 01:20:47;;;;;;;;;;;;;;;21.19;59.55;100370.06;1025363;28;635;-72
2022/09/09 01:21:37;;;;;;;;;;;;;;;21.20;59.20;100366.38;1027741;28;1520;-73
2022/09/09 01:22:28;;;;;;;;;;;;;;;21.21;59.38;100370.78;1029710;28;1345;-74
2022/09/09 01:23:19;;;;;;;;;;;;;;;21.21;59.40;100368.06;1026930;28;1428;-73
2022/09/09 01:24:09;;;;;;;;;;;;;;;21.21;59.38;100363.50;1021117;29;717;-73
2022/09/09 01:24:59;;;;;;;;;;;;;;;21.22;59.45;100367.88;1022046;28;631;-73
2022/09/09 01:25:50;;;;;;;;;;;;;;;21.20;59.23;100372.66;1025914;28;563;-73
2022/09/09 01:26:40;;;;;;;;;;;;;;;21.18;59.37;100365.69;1026365;28;658;-73
2022/09/09 01:27:31;;;;;;;;;;;;;;;21.19;59.37;100359.25;1025370;28;691;-73
2022/09/09 01:28:21;;;;;;;;;;;;;;;21.17;59.62;100362.13;1026453;28;623;-73
2022/09/09 01:29:12;;;;;;;;;;;;;;;21.18;59.35;100354.84;1024739;28;647;-73
2022/09/09 01:30:02;;;;;;;;;;;;;;;21.19;59.43;100360.09;1026449;28;847;-73
2022/09/09 01:30:53;;;;;;;;;;;;;;;21.19;59.59;100356.53;1021017;29;647;-73
2022/09/09 01:31:43;;;;;;;;;;;;;;;21.19;59.57;100356.53;1021695;29;555;-73
2022/09/09 01:32:34;;;;;;;;;;;;;;;21.18;59.35;100358.41;1029923;28;734;-72
2022/09/09 01:33:24;;;;;;;;;;;;;;;21.17;59.43;100354.00;1029865;28;658;-73
2022/09/09 01:34:14;;;;;;;;;;;;;;;21.11;59.33;100352.88;1029885;28;638;-73
2022/09/09 01:35:05;;;;;;;;;;;;;;;21.08;59.56;100347.81;1029933;28;701;-73
2022/09/09 01:35:55;;;;;;;;;;;;;;;21.09;59.42;100354.91;1029966;28;815;-73
2022/09/09 01:36:46;;;;;;;;;;;;;;;21.10;59.41;100345.75;1029874;28;709;-73
2022/09/09 01:37:36;;;;;;;;;;;;;;;21.10;59.33;100344.91;1024480;28;769;-73
2022/09/09 01:38:26;;;;;;;;;;;;;;;21.12;59.31;100351.00;1026604;28;686;-73
2022/09/09 01:39:17;;;;;;;;;;;;;;;21.11;59.45;100342.03;1026747;28;638;-73
2022/09/09 01:40:07;;;;;;;;;;;;;;;21.15;59.32;100347.91;1029271;28;733;-75
2022/09/09 01:40:58;;;;;;;;;;;;;;;21.14;59.38;100343.50;1029917;28;630;-75
2022/09/09 01:41:48;;;;;;;;;;;;;;;21.14;59.19;100341.66;1029828;28;682;-75
2022/09/09 01:42:39;;;;;;;;;;;;;;;21.14;58.92;100341.66;1029262;28;633;-75
2022/09/09 01:43:29;;;;;;;;;;;;;;;21.12;59.05;100343.72;1029746;28;1946;-75
2022/09/09 01:44:20;;;;;;;;;;;;;;;21.12;59.11;100346.44;1029816;28;706;-75
2022/09/09 01:45:10;;;;;;;;;;;;;;;21.12;59.28;100338.31;1025091;28;654;-75
2022/09/09 01:46:00;;;;;;;;;;;;;;;21.14;59.15;100343.50;1025991;28;642;-75
2022/09/09 01:46:51;;;;;;;;;;;;;;;21.11;59.13;100339.31;1029886;28;627;-73
2022/09/09 01:47:41;;;;;;;;;;;;;;;21.13;59.14;100345.41;1029833;28;654;-75
2022/09/09 01:48:32;;;;;;;;;;;;;;;21.11;59.13;100339.31;1029887;28;749;-72
2022/09/09 01:49:22;;;;;;;;;;;;;;;21.11;59.12;100341.19;1029886;28;662;-75
2022/09/09 01:50:13;;;;;;;;;;;;;;;21.12;59.19;100332.88;1029809;28;654;-74
2022/09/09 01:51:03;;;;;;;;;;;;;;;21.10;59.29;100340.34;1028755;28;1460;-74
2022/09/09 01:51:53;;;;;;;;;;;;;;;21.12;59.13;100342.88;1026193;28;631;-74
2022/09/09 01:52:44;;;;;;;;;;;;;;;21.12;59.08;100337.47;1025813;28;1184;-74
2022/09/09 01:53:34;;;;;;;;;;;;;;;21.11;59.02;100336.63;1028848;28;733;-73
2022/09/09 01:54:25;;;;;;;;;;;;;;;21.12;59.11;100341.00;1029288;28;704;-74
2022/09/09 01:55:15;;;;;;;;;;;;;;;21.11;58.97;100335.78;1029322;28;647;-72
2022/09/09 01:56:05;;;;;;;;;;;;;;;21.11;59.08;100339.31;1028674;28;642;-71
2022/09/09 01:56:56;;;;;;;;;;;;;;;21.10;59.22;100339.50;1028691;28;646;-73
2022/09/09 01:57:46;;;;;;;;;;;;;;;21.10;59.14;100340.34;1028732;28;698;-74
2022/09/09 01:58:37;;;;;;;;;;;;;;;21.09;59.08;100343.22;1028644;28;647;-73
2022/09/09 01:59:27;;;;;;;;;;;;;;;21.08;58.95;100334.25;1028288;28;1476;-74
2022/09/09 02:00:18;;;;;;;;;;;;;;;21.10;59.08;100334.09;1026180;28;678;-74
2022/09/09 02:01:08;;;;;;;;;;;;;;;21.08;59.16;100336.97;1025241;28;635;-74
2022/09/09 02:01:58;;;;;;;;;;;;;;;21.06;59.33;100336.31;1026349;28;660;-74
2022/09/09 02:02:49;;;;;;;;;;;;;;;21.08;59.24;100336.13;1025169;28;686;-74
2022/09/09 02:03:40;;;;;;;;;;;;;;;21.09;59.09;100330.53;1024577;29;1894;-74
2022/09/09 02:04:30;;;;;;;;;;;;;;;21.07;59.37;100329.84;1026338;28;738;-74
2022/09/09 02:05:21;;;;;;;;;;;;;;;21.06;58.83;100327.31;1026250;28;686;-74
2022/09/09 02:06:11;;;;;;;;;;;;;;;21.05;59.26;100334.63;1026429;28;693;-74
2022/09/09 02:07:01;;;;;;;;;;;;;;;21.06;59.25;100330.88;1026963;28;1405;-74
2022/09/09 02:07:52;;;;;;;;;;;;;;;20.99;59.25;100335.31;1026454;28;642;-74
2022/09/09 02:08:43;;;;;;;;;;;;;;;20.97;59.45;100331.94;1024691;29;600;-74
2022/09/09 02:09:33;;;;;;;;;;;;;;;20.99;59.36;100331.78;1020928;29;635;-74
2022/09/09 02:10:23;;;;;;;;;;;;;;;20.98;59.36;100333.63;1020795;29;1161;-74
2022/09/09 02:11:14;;;;;;;;;;;;;;;21.01;58.96;100330.56;1026426;28;788;-73
2022/09/09 02:12:04;;;;;;;;;;;;;;;21.04;59.08;100332.94;1024663;29;647;-74
2022/09/09 02:12:55;;;;;;;;;;;;;;;21.06;59.37;100330.03;1024708;29;671;-73
2022/09/09 02:13:45;;;;;;;;;;;;;;;21.06;59.10;100328.16;1025788;28;659;-73
2022/09/09 02:14:36;;;;;;;;;;;;;;;21.06;59.09;100330.88;1024710;29;765;-73
2022/09/09 02:15:26;;;;;;;;;;;;;;;21.06;59.05;100325.47;1021410;29;1335;-74
2022/09/09 02:16:17;;;;;;;;;;;;;;;21.02;59.31;100329.53;1021527;28;654;-74
2022/09/09 02:17:07;;;;;;;;;;;;;;;21.04;59.33;100332.09;1024992;28;623;-74
2022/09/09 02:17:58;;;;;;;;;;;;;;;20.95;59.28;100331.31;1024679;29;655;-74
2022/09/09 02:18:48;;;;;;;;;;;;;;;20.97;59.23;100323.81;1024641;29;627;-73
2022/09/09 02:19:38;;;;;;;;;;;;;;;21.00;59.29;100333.47;1024730;29;655;-74
2022/09/09 02:20:32;;;;;;;;;;;;;;;20.99;59.18;100323.63;1024626;29;659;-73
2022/09/09 02:21:22;;;;;;;;;;;;;;;21.02;59.36;100332.25;1024256;28;1432;-74
2022/09/09 02:22:13;;;;;;;;;;;;;;;21.03;59.07;100333.94;1026183;28;631;-74
2022/09/09 02:23:03;;;;;;;;;;;;;;;21.02;59.13;100331.41;1026061;28;1095;-74
2022/09/09 02:23:54;;;;;;;;;;;;;;;21.00;59.33;100325.31;1025125;28;714;-73
2022/09/09 02:24:46;;;;;;;;;;;;;;;20.99;59.12;100329.91;1026296;28;587;-74
2022/09/09 02:25:36;;;;;;;;;;;;;;;21.00;59.29;100325.31;1024602;29;612;-74
2022/09/09 02:26:26;;;;;;;;;;;;;;;21.02;59.15;100324.13;1025142;28;668;-74
2022/09/09 02:27:17;;;;;;;;;;;;;;;21.02;59.19;100324.13;1026269;28;721;-73
2022/09/09 02:28:07;;;;;;;;;;;;;;;21.02;59.11;100326.84;1026182;28;674;-74
2022/09/09 02:28:58;;;;;;;;;;;;;;;20.98;59.25;100320.09;1026161;28;651;-74
2022/09/09 02:29:48;;;;;;;;;;;;;;;20.99;59.23;100315.50;1026290;28;635;-74
2022/09/09 02:30:39;;;;;;;;;;;;;;;20.98;59.36;100324.66;1026242;28;728;-74
2022/09/09 02:31:29;;;;;;;;;;;;;;;20.98;59.23;100324.66;1026311;28;650;-74
2022/09/09 02:32:19;;;;;;;;;;;;;;;20.98;59.19;100330.91;1025225;29;670;-74
2022/09/09 02:33:10;;;;;;;;;;;;;;;20.98;59.15;100322.78;1025162;28;674;-74
2022/09/09 02:34:00;;;;;;;;;;;;;;;20.98;59.13;100324.66;1024658;29;702;-74
2022/09/09 02:34:51;;;;;;;;;;;;;;;20.98;59.08;100320.09;1026374;28;698;-73
2022/09/09 02:35:41;;;;;;;;;;;;;;;20.98;59.12;100327.38;1025776;28;682;-74
2022/09/09 02:36:33;;;;;;;;;;;;;;;20.98;59.21;100325.50;1025282;29;678;-74
2022/09/09 02:37:24;;;;;;;;;;;;;;;20.97;59.23;100331.94;1024639;29;682;-74
2022/09/09 02:38:15;;;;;;;;;;;;;;;20.96;59.27;100326.72;1024535;29;772;-74
2022/09/09 02:39:05;;;;;;;;;;;;;;;20.98;58.89;100320.09;1021429;28;666;-74
2022/09/09 02:39:56;;;;;;;;;;;;;;;20.96;58.93;100326.72;1020842;29;627;-74
2022/09/09 02:40:47;;;;;;;;;;;;;;;20.96;58.98;100322.13;1020268;29;654;-74
2022/09/09 02:41:37;;;;;;;;;;;;;;;20.97;58.97;100329.22;1020869;29;670;-74
2022/09/09 02:42:28;;;;;;;;;;;;;;;20.98;58.97;100320.09;1025644;28;702;-73
2022/09/09 02:43:18;;;;;;;;;;;;;;;20.97;59.16;100329.22;1024545;29;698;-73
2022/09/09 02:44:09;;;;;;;;;;;;;;;20.96;58.99;100327.53;1026015;28;694;-74
2022/09/09 02:44:59;;;;;;;;;;;;;;;20.96;59.31;100327.53;1021343;29;658;-73
2022/09/09 02:45:50;;;;;;;;;;;;;;;20.96;59.11;100330.25;1020793;29;546;-73
2022/09/09 02:46:41;;;;;;;;;;;;;;;20.96;58.96;100326.72;1024994;28;612;-74
2022/09/09 02:47:31;;;;;;;;;;;;;;;20.95;59.05;100325.88;1024525;29;602;-74
2022/09/09 02:48:22;;;;;;;;;;;;;;;20.83;59.05;100326.44;1026061;28;630;-74
2022/09/09 02:49:13;;;;;;;;;;;;;;;20.86;59.00;100326.09;1020771;29;729;-74
2022/09/09 02:50:03;;;;;;;;;;;;;;;20.89;59.13;100321.19;1021521;28;689;-74
2022/09/09 02:50:54;;;;;;;;;;;;;;;20.88;59.19;100322.19;1027034;28;1522;-74
2022/09/09 02:51:44;;;;;;;;;;;;;;;20.90;59.04;100322.88;1028527;28;663;-73
2022/09/09 02:52:34;;;;;;;;;;;;;;;20.93;59.05;100322.50;1029103;28;752;-73
2022/09/09 02:53:25;;;;;;;;;;;;;;;20.93;58.97;100321.66;1025126;29;638;-74
2022/09/09 02:54:16;;;;;;;;;;;;;;;20.92;58.70;100319.97;1025139;28;631;-73
2022/09/09 02:55:07;;;;;;;;;;;;;;;20.93;58.79;100322.50;1024789;28;682;-73
2022/09/09 02:55:57;;;;;;;;;;;;;;;20.92;58.88;100319.97;1025308;28;615;-74
2022/09/09 02:56:47;;;;;;;;;;;;;;;20.91;58.98;100327.25;1025058;28;662;-73
2022/09/09 02:57:38;;;;;;;;;;;;;;;20.91;59.08;100318.28;1025042;29;799;-74
2022/09/09 02:58:28;;;;;;;;;;;;;;;20.91;58.84;100323.72;1025032;28;654;-73
2022/09/09 02:59:19;;;;;;;;;;;;;;;20.90;59.05;100322.03;1027160;28;1469;-73
2022/09/09 03:00:10;;;;;;;;;;;;;;;20.89;58.98;100323.03;1029607;28;615;-74
2022/09/09 03:01:02;;;;;;;;;;;;;;;20.89;58.93;100323.88;1028468;28;623;-73
2022/09/09 03:01:53;;;;;;;;;;;;;;;20.90;59.09;100319.31;1028592;28;615;-73
2022/09/09 03:02:45;;;;;;;;;;;;;;;20.91;58.92;100318.28;1028393;28;599;-73
2022/09/09 03:03:35;;;;;;;;;;;;;;;20.92;59.01;100312.69;1028387;28;1887;-74
2022/09/09 03:04:25;;;;;;;;;;;;;;;20.90;59.01;100317.44;1029077;28;681;-74
2022/09/09 03:05:16;;;;;;;;;;;;;;;20.89;58.57;100318.47;1029630;28;822;-74
2022/09/09 03:06:06;;;;;;;;;;;;;;;20.90;58.89;100322.03;1029494;28;646;-74
2022/09/09 03:06:57;;;;;;;;;;;;;;;20.89;58.77;100323.88;1029518;28;638;-74
2022/09/09 03:07:47;;;;;;;;;;;;;;;20.88;58.75;100322.19;1023793;29;1536;-74
2022/09/09 03:08:38;;;;;;;;;;;;;;;20.86;58.85;100323.41;1025726;28;611;-74
2022/09/09 03:09:28;;;;;;;;;;;;;;;20.85;58.86;100317.13;1028942;28;628;-74
2022/09/09 03:10:19;;;;;;;;;;;;;;;20.86;59.11;100326.94;1020069;29;1139;-73
2022/09/09 03:11:09;;;;;;;;;;;;;;;20.85;58.49;100319.00;1022469;28;692;-74
2022/09/09 03:12:00;;;;;;;;;;;;;;;20.82;58.72;100319.34;1026159;28;669;-72
2022/09/09 03:12:50;;;;;;;;;;;;;;;20.84;58.82;100323.56;1024440;29;826;-73
2022/09/09 03:13:41;;;;;;;;;;;;;;;20.83;58.66;100316.47;1025022;29;647;-73
2022/09/09 03:14:31;;;;;;;;;;;;;;;20.83;58.76;100312.91;1024928;28;643;-72
2022/09/09 03:15:21;;;;;;;;;;;;;;;20.82;58.74;100314.78;1024464;28;592;-73
2022/09/09 03:16:12;;;;;;;;;;;;;;;20.82;58.60;100314.78;1025038;28;631;-73
2022/09/09 03:17:02;;;;;;;;;;;;;;;20.82;58.55;100308.50;1024953;29;687;-73
2022/09/09 03:17:53;;;;;;;;;;;;;;;20.82;58.76;100303.09;1024977;29;674;-73
2022/09/09 03:18:44;;;;;;;;;;;;;;;20.82;58.92;100311.22;1025011;28;654;-73
2022/09/09 03:19:36;;;;;;;;;;;;;;;20.84;58.84;100301.06;1024359;29;706;-73
2022/09/09 03:20:26;;;;;;;;;;;;;;;20.83;58.53;100308.34;1024900;28;631;-73
2022/09/09 03:21:17;;;;;;;;;;;;;;;20.84;58.59;100310.03;1024957;28;611;-73
2022/09/09 03:22:07;;;;;;;;;;;;;;;20.85;58.75;100302.75;1025010;29;825;-73
2022/09/09 03:22:58;;;;;;;;;;;;;;;20.85;58.65;100308.16;1024403;29;764;-73
2022/09/09 03:23:48;;;;;;;;;;;;;;;20.84;58.56;100301.06;1024786;28;1907;-73
2022/09/09 03:24:40;;;;;;;;;;;;;;;20.82;58.58;100312.06;1024995;28;606;-73
2022/09/09 03:25:31;;;;;;;;;;;;;;;20.81;58.64;100307.66;1024371;29;697;-73
2022/09/09 03:26:21;;;;;;;;;;;;;;;20.80;58.46;100311.41;1024890;29;682;-72
2022/09/09 03:27:11;;;;;;;;;;;;;;;20.82;58.65;100308.50;1028070;28;698;-72
2022/09/09 03:28:02;;;;;;;;;;;;;;;20.79;58.72;100312.41;1023582;28;643;-72
2022/09/09 03:28:53;;;;;;;;;;;;;;;20.77;58.93;100309.06;1020808;29;663;-72
2022/09/09 03:29:44;;;;;;;;;;;;;;;20.79;58.63;100304.28;1023681;29;599;-72
2022/09/09 03:30:35;;;;;;;;;;;;;;;20.80;58.62;100305.97;1024448;29;596;-72
2022/09/09 03:31:25;;;;;;;;;;;;;;;20.81;58.62;100302.25;1024976;28;631;-72
2022/09/09 03:32:17;;;;;;;;;;;;;;;20.80;58.57;100305.97;1024852;29;706;-73
2022/09/09 03:33:07;;;;;;;;;;;;;;;20.78;58.56;100303.44;1024861;28;690;-72
2022/09/09 03:33:58;;;;;;;;;;;;;;;20.79;58.40;100301.59;1024884;28;651;-74
2022/09/09 03:34:49;;;;;;;;;;;;;;;20.78;58.70;100310.75;1024676;28;646;-72
2022/09/09 03:35:41;;;;;;;;;;;;;;;20.75;58.69;100320.09;1024677;28;678;-72
2022/09/09 03:36:31;;;;;;;;;;;;;;;20.75;58.60;100311.97;1024350;29;745;-72
2022/09/09 03:37:22;;;;;;;;;;;;;;;20.79;58.66;100312.41;1024941;29;564;-72
2022/09/09 03:38:12;;;;;;;;;;;;;;;20.78;58.45;100310.75;1024952;28;658;-72
2022/09/09 03:39:03;;;;;;;;;;;;;;;20.79;58.52;100304.28;1024853;28;647;-73
2022/09/09 03:39:57;;;;;;;;;;;;;;;20.79;58.70;100317.84;1024745;28;1441;-72
2022/09/09 03:40:47;;;;;;;;;;;;;;;20.78;58.41;100310.75;1026122;28;636;-73
2022/09/09 03:41:38;;;;;;;;;;;;;;;20.77;58.45;100312.63;1021236;28;623;-73
2022/09/09 03:42:29;;;;;;;;;;;;;;;20.78;58.54;100313.47;1023948;29;703;-73
2022/09/09 03:43:21;;;;;;;;;;;;;;;20.77;58.55;100309.06;1023902;29;619;-73
2022/09/09 03:44:11;;;;;;;;;;;;;;;20.76;58.63;100304.69;1024364;29;595;-73
2022/09/09 03:45:01;;;;;;;;;;;;;;;20.75;58.61;100311.13;1024891;28;659;-74
2022/09/09 03:45:52;;;;;;;;;;;;;;;20.74;58.75;100306.72;1024881;28;679;-73
2022/09/09 03:46:42;;;;;;;;;;;;;;;20.76;58.56;100310.09;1024813;28;659;-73
2022/09/09 03:47:33;;;;;;;;;;;;;;;20.76;58.62;100304.69;1024853;28;705;-73
2022/09/09 03:48:24;;;;;;;;;;;;;;;20.74;58.55;100310.28;1024350;28;614;-74
2022/09/09 03:49:15;;;;;;;;;;;;;;;20.76;58.65;100310.09;1024876;28;678;-73
2022/09/09 03:50:08;;;;;;;;;;;;;;;20.74;58.66;100307.56;1024897;29;639;-73
2022/09/09 03:51:01;;;;;;;;;;;;;;;20.73;58.64;100305.03;1024841;28;640;-74
2022/09/09 03:51:51;;;;;;;;;;;;;;;20.72;58.75;100304.19;1024847;29;734;-73
2022/09/09 03:52:42;;;;;;;;;;;;;;;20.73;58.63;100308.59;1025037;28;1147;-73
2022/09/09 03:53:33;;;;;;;;;;;;;;;20.72;58.70;100306.06;1028296;28;726;-74
2022/09/09 03:54:23;;;;;;;;;;;;;;;20.71;58.69;100302.50;1028258;28;639;-74
2022/09/09 03:55:14;;;;;;;;;;;;;;;20.71;58.56;100307.06;1028365;28;670;-74
2022/09/09 03:56:06;;;;;;;;;;;;;;;20.71;58.61;100302.50;1028254;28;851;-73
2022/09/09 03:56:57;;;;;;;;;;;;;;;20.70;58.82;100303.53;1028296;28;804;-73
2022/09/09 03:57:48;;;;;;;;;;;;;;;20.69;58.51;100293.72;1028395;28;690;-73
2022/09/09 03:58:39;;;;;;;;;;;;;;;20.70;58.60;100299.97;1028262;28;636;-73
2022/09/09 03:59:29;;;;;;;;;;;;;;;20.69;58.44;100303.69;1028197;28;572;-73
2022/09/09 04:00:20;;;;;;;;;;;;;;;20.69;58.60;100304.53;1028299;28;623;-74
2022/09/09 04:01:10;;;;;;;;;;;;;;;20.70;58.51;100302.69;1028725;28;627;-73
2022/09/09 04:02:01;;;;;;;;;;;;;;;20.71;58.43;100309.78;1028925;28;694;-73
2022/09/09 04:02:53;;;;;;;;;;;;;;;20.70;58.44;100308.09;1028405;28;659;-73
2022/09/09 04:03:47;;;;;;;;;;;;;;;20.71;58.45;100304.34;1028710;28;1961;-73
2022/09/09 04:04:37;;;;;;;;;;;;;;;20.70;58.53;100313.50;1028251;28;623;-73
2022/09/09 04:05:28;;;;;;;;;;;;;;;20.69;58.45;100306.41;1028832;28;714;-73
2022/09/09 04:06:19;;;;;;;;;;;;;;;20.70;58.53;100310.78;1028824;28;641;-74
2022/09/09 04:07:11;;;;;;;;;;;;;;;20.66;58.80;100310.31;1028357;28;627;-73
2022/09/09 04:08:02;;;;;;;;;;;;;;;20.68;58.42;100308.25;1028387;28;690;-74
2022/09/09 04:08:52;;;;;;;;;;;;;;;20.63;58.55;100299.81;1024570;29;587;-74
2022/09/09 04:09:42;;;;;;;;;;;;;;;20.63;58.35;100304.41;1024536;28;666;-74
2022/09/09 04:10:33;;;;;;;;;;;;;;;20.65;58.27;100302.34;1024691;28;1136;-73
2022/09/09 04:11:24;;;;;;;;;;;;;;;20.65;58.60;100313.19;1025327;28;638;-74
2022/09/09 04:12:14;;;;;;;;;;;;;;;20.68;58.70;100310.97;1028788;28;1332;-73
2022/09/09 04:13:05;;;;;;;;;;;;;;;20.68;58.87;100302.00;1028348;28;737;-74
2022/09/09 04:13:55;;;;;;;;;;;;;;;20.67;58.43;100300.31;1028692;28;666;-74
2022/09/09 04:14:46;;;;;;;;;;;;;;;20.64;58.52;100304.22;1028325;28;655;-74
2022/09/09 04:15:36;;;;;;;;;;;;;;;20.64;58.98;100297.97;1028098;28;624;-74
2022/09/09 04:16:26;;;;;;;;;;;;;;;20.66;58.26;100304.03;1028773;28;623;-74
2022/09/09 04:17:17;;;;;;;;;;;;;;;20.66;58.35;100304.88;1027893;28;631;-74
2022/09/09 04:18:07;;;;;;;;;;;;;;;20.68;58.56;100299.28;1028279;28;584;-74
2022/09/09 04:18:58;;;;;;;;;;;;;;;20.65;58.66;100296.94;1028315;28;787;-74
2022/09/09 04:19:48;;;;;;;;;;;;;;;20.65;58.26;100295.06;1028167;28;722;-72
2022/09/09 04:20:39;;;;;;;;;;;;;;;20.66;58.36;100293.22;1028202;28;557;-72
2022/09/09 04:21:29;;;;;;;;;;;;;;;20.65;58.54;100294.22;1028229;28;639;-72
2022/09/09 04:22:19;;;;;;;;;;;;;;;20.64;58.72;100293.38;1028709;28;619;-72
2022/09/09 04:23:10;;;;;;;;;;;;;;;20.65;58.22;100295.06;1028329;28;738;-72
2022/09/09 04:24:00;;;;;;;;;;;;;;;20.64;58.56;100292.53;1028154;28;655;-73
2022/09/09 04:24:51;;;;;;;;;;;;;;;20.65;58.55;100294.22;1028239;28;663;-72
2022/09/09 04:25:41;;;;;;;;;;;;;;;20.64;58.49;100287.13;1028144;28;637;-72
2022/09/09 04:26:31;;;;;;;;;;;;;;;20.64;58.56;100292.53;1028728;28;654;-74